Time;durP1;ratioP1;P1;durP2;ratioP2;P2;SDS_P1;SDS_P2;PMS_P1;PMS_P2;Temp;Humidity;BMP_temperature;BMP_pressure;BME280_temperature;BME280_humidity;BME280_pressure;Samples;Min_cycle;Max_cycle;Signal;HPM_P1;HPM_P2
2022/10/16 00:00:44;;;;;;;34.72;21.50;;;;;;;6.89;95.39;101421.09;5084411;28;20488;-74
2022/10/16 00:03:11;;;;;;;36.45;19.15;;;;;;;6.68;96.27;101397.84;5085930;28;20039;-75
2022/10/16 00:05:42;;;;;;;25.52;19.30;;;;;;;7.51;95.96;101542.22;5085408;28;20032;-75
2022/10/16 00:08:09;;;;;;;39.70;21.23;;;;;;;7.36;97.03;101531.31;5076067;28;20166;-75
2022/10/16 00:10:35;;;;;;;29.45;20.67;;;;;;;7.31;97.65;101536.41;5066604;28;20048;-77
2022/10/16 00:13:01;;;;;;;32.22;21.45;;;;;;;7.22;97.60;101522.16;5066764;28;20447;-75
2022/10/16 00:15:26;;;;;;;40.75;23.90;;;;;;;7.12;97.93;101515.78;5065668;28;20028;-76
2022/10/16 00:17:52;;;;;;;27.67;18.70;;;;;;;6.71;98.28;101453.56;5066903;28;20052;-76
2022/10/16 00:20:17;;;;;;;32.00;20.13;;;;;;;6.95;98.46;101489.13;5065451;28;20045;-77
2022/10/16 00:22:43;;;;;;;39.78;21.42;;;;;;;7.32;98.37;101545.09;5074233;28;20036;-76
2022/10/16 00:25:08;;;;;;;29.90;21.08;;;;;;;7.05;97.99;101506.88;5086176;28;20036;-78
2022/10/16 00:27:34;;;;;;;29.73;20.05;;;;;;;5.86;97.49;101290.03;5076124;28;20047;-76
2022/10/16 00:30:00;;;;;;;28.50;21.27;;;;;;;7.27;97.87;101550.19;5049225;28;20016;-77
2022/10/16 00:32:25;;;;;;;35.10;21.38;;;;;;;6.41;97.58;101401.31;5066352;28;20399;-77
2022/10/16 00:34:51;;;;;;;31.40;19.70;;;;;;;7.07;98.12;101554.78;5048641;28;20033;-76
2022/10/16 00:37:16;;;;;;;33.25;21.02;;;;;;;7.19;98.14;101543.84;5069606;28;20586;-77
2022/10/16 00:39:42;;;;;;;29.10;21.23;;;;;;;6.42;97.49;101404.84;5074657;28;20491;-79
2022/10/16 00:42:15;;;;;;;36.38;23.77;;;;;;;6.44;98.12;101432.72;5066945;28;20048;-75
2022/10/16 00:44:46;;;;;;;39.50;21.70;;;;;;;6.92;97.79;101513.38;5064254;28;20531;-75
2022/10/16 00:47:19;;;;;;;35.47;21.98;;;;;;;6.83;98.24;101514.81;5046609;28;20777;-76
2022/10/16 00:49:46;;;;;;;42.58;23.75;;;;;;;7.22;97.10;101548.28;5047049;28;20551;-76
2022/10/16 00:52:13;;;;;;;33.60;23.88;;;;;;;7.10;97.42;101556.59;5052955;28;20487;-76
2022/10/16 00:54:38;;;;;;;38.33;21.58;;;;;;;6.44;97.23;101442.22;5080076;28;20139;-79
2022/10/16 00:57:06;;;;;;;32.75;23.13;;;;;;;6.96;98.37;101540.50;5087118;28;20150;-76
2022/10/16 00:59:40;;;;;;;29.90;20.35;;;;;;;6.37;98.18;101433.34;5068065;28;20451;-76
2022/10/16 01:02:09;;;;;;;35.53;24.55;;;;;;;6.95;98.81;101552.66;5087810;28;20127;-79
2022/10/16 01:04:39;;;;;;;46.10;22.23;;;;;;;6.89;98.51;101544.59;5086522;28;20044;-78
2022/10/16 01:07:23;;;;;;;31.42;21.35;;;;;;;5.75;99.13;101365.19;5076594;28;20055;-77
2022/10/16 01:10:07;;;;;;;25.60;21.17;;;;;;;6.94;99.18;101548.25;5089996;28;20040;-76
2022/10/16 01:12:35;;;;;;;25.85;20.10;;;;;;;6.25;99.25;101456.38;5090100;28;20030;-75
2022/10/16 01:15:25;;;;;;;29.05;21.65;;;;;;;6.57;100.00;101545.25;5084866;28;20032;-76
2022/10/16 01:18:00;;;;;;;34.35;21.23;;;;;;;5.80;99.98;101414.81;5069325;28;20044;-75
2022/10/16 01:20:37;;;;;;;26.05;19.27;;;;;;;6.39;100.00;101528.13;5067520;28;21098;-77
2022/10/16 01:23:24;;;;;;;36.85;22.50;;;;;;;6.40;100.00;101555.09;5087807;28;20044;-75
2022/10/16 01:26:27;;;;;;;29.02;19.85;;;;;;;6.46;100.00;101555.28;5071508;28;20052;-76
2022/10/16 01:29:08;;;;;;;27.83;19.63;;;;;;;6.21;99.63;101462.34;5049070;28;20502;-77
2022/10/16 01:31:37;;;;;;;29.50;21.88;;;;;;;6.71;98.98;101525.72;5069997;28;20048;-76
2022/10/16 01:34:08;;;;;;;31.48;21.00;;;;;;;6.00;98.58;101418.19;5090105;28;20039;-74
2022/10/16 01:36:40;;;;;;;32.67;23.55;;;;;;;6.70;98.63;101540.50;5089627;28;20023;-77
2022/10/16 01:39:10;;;;;;;28.77;20.90;;;;;;;5.72;99.25;101456.22;5093963;28;20078;-76
2022/10/16 01:41:47;;;;;;;30.65;20.58;;;;;;;5.39;100.00;101427.22;5068900;28;20044;-77
2022/10/16 01:44:23;;;;;;;29.77;20.23;;;;;;;6.01;100.00;101545.88;5069287;28;20084;-78
2022/10/16 01:46:51;;;;;;;29.60;20.73;;;;;;;5.62;100.00;101448.88;5049375;28;20149;-78
2022/10/16 01:49:18;;;;;;;29.67;20.42;;;;;;;5.46;99.77;101435.31;5030762;28;20699;-76
2022/10/16 01:51:48;;;;;;;31.33;19.77;;;;;;;5.50;99.32;101458.03;5059646;28;20040;-74
2022/10/16 01:54:14;;;;;;;29.63;19.15;;;;;;;5.56;99.13;101480.78;5067993;28;20028;-76
2022/10/16 01:56:41;;;;;;;26.77;17.17;;;;;;;5.85;100.00;101575.66;5068634;28;20123;-75
2022/10/16 01:59:13;;;;;;;33.92;19.10;;;;;;;5.83;100.00;101576.41;5068512;28;20040;-76
2022/10/16 02:01:42;;;;;;;34.28;19.25;;;;;;;5.79;100.00;101593.63;5068539;28;20044;-77
2022/10/16 02:04:22;;;;;;;41.20;18.23;;;;;;;5.69;100.00;101592.41;5068456;28;20044;-76
2022/10/16 02:06:48;;;;;;;27.50;19.10;;;;;;;4.97;100.00;101448.16;5066875;28;20048;-76
2022/10/16 02:09:16;;;;;;;29.85;17.73;;;;;;;5.08;100.00;101434.75;5068988;28;20051;-76
2022/10/16 02:11:42;;;;;;;33.05;18.13;;;;;;;5.14;99.52;101451.44;5068648;28;20090;-76
2022/10/16 02:14:08;;;;;;;26.17;18.17;;;;;;;5.75;100.00;101599.56;5068368;28;20429;-76
2022/10/16 02:16:40;;;;;;;28.73;17.60;;;;;;;5.73;100.00;101603.81;5051097;28;20499;-75
2022/10/16 02:19:06;;;;;;;30.13;19.23;;;;;;;5.41;100.00;101535.78;5066860;28;20040;-75
2022/10/16 02:21:44;;;;;;;24.67;17.50;;;;;;;5.36;100.00;101524.31;5070562;28;20041;-78
2022/10/16 02:24:36;;;;;;;29.38;20.17;;;;;;;5.68;100.00;101577.59;5068692;28;20056;-76
2022/10/16 02:27:26;;;;;;;23.70;18.75;;;;;;;5.68;100.00;101614.03;5060677;28;20032;-76
2022/10/16 02:30:15;;;;;;;28.33;15.45;;;;;;;6.10;100.00;101607.84;5084884;28;20048;-76
2022/10/16 02:32:44;;;;;;;34.25;18.83;;;;;;;5.76;99.40;101545.75;5047602;28;20104;-76
2022/10/16 02:35:10;;;;;;;35.63;17.65;;;;;;;5.50;98.31;101457.13;5056683;28;20048;-76
2022/10/16 02:37:38;;;;;;;25.60;17.20;;;;;;;5.56;97.69;101461.69;5057306;28;20044;-76
2022/10/16 02:40:05;;;;;;;24.50;16.52;;;;;;;5.64;97.78;101491.50;5067271;28;20052;-76
2022/10/16 02:42:36;;;;;;;45.53;18.92;;;;;;;5.98;98.81;101592.66;5067599;28;20072;-76
2022/10/16 02:45:02;;;;;;;24.83;18.60;;;;;;;5.47;97.92;101470.91;5062898;28;20033;-76
2022/10/16 02:47:27;;;;;;;23.95;16.75;;;;;;;5.99;97.73;101547.53;5048094;28;20048;-77
2022/10/16 02:49:53;;;;;;;24.55;15.82;;;;;;;5.13;98.75;101463.56;5047549;28;20041;-76
2022/10/16 02:52:18;;;;;;;24.00;15.20;;;;;;;5.17;98.61;101428.13;5047650;28;20052;-77
2022/10/16 02:54:44;;;;;;;23.25;18.48;;;;;;;6.44;98.54;101604.78;5060759;28;20036;-76
2022/10/16 02:57:16;;;;;;;31.95;20.08;;;;;;;5.55;97.87;101484.25;5067826;28;20472;-77
2022/10/16 02:59:42;;;;;;;22.43;16.23;;;;;;;6.32;98.17;101614.75;5069382;28;20047;-78
2022/10/16 03:02:07;;;;;;;27.08;15.75;;;;;;;5.53;97.86;101462.47;5087934;28;20044;-77
2022/10/16 03:04:33;;;;;;;22.17;14.88;;;;;;;5.44;97.63;101451.72;5081776;28;20047;-76
2022/10/16 03:06:58;;;;;;;22.52;17.15;;;;;;;5.71;97.44;101515.22;5087924;28;20181;-76
2022/10/16 03:09:24;;;;;;;24.63;14.35;;;;;;;5.37;97.43;101458.41;5088023;28;20035;-75
2022/10/16 03:11:49;;;;;;;18.67;15.45;;;;;;;6.37;97.44;101617.50;5088391;28;20020;-76
2022/10/16 03:14:15;;;;;;;26.98;17.25;;;;;;;5.64;97.73;101499.31;5087810;28;20044;-76
2022/10/16 03:16:40;;;;;;;28.63;15.88;;;;;;;6.21;97.80;101626.50;5069894;28;20040;-77
2022/10/16 03:19:06;;;;;;;29.75;17.65;;;;;;;5.87;98.36;101586.13;5086071;28;20039;-76
2022/10/16 03:21:31;;;;;;;30.92;16.13;;;;;;;5.77;99.37;101600.50;5087481;28;20028;-77
2022/10/16 03:23:56;;;;;;;25.25;16.20;;;;;;;6.01;98.80;101626.63;5087665;28;20032;-77
2022/10/16 03:26:22;;;;;;;26.98;16.80;;;;;;;6.06;98.23;101619.00;5086113;28;20044;-76
2022/10/16 03:28:47;;;;;;;32.63;19.90;;;;;;;6.39;96.69;101647.13;5048957;28;20048;-77
2022/10/16 03:31:13;;;;;;;28.95;20.35;;;;;;;6.34;96.07;101633.94;5070396;28;20052;-77
2022/10/16 03:33:38;;;;;;;29.83;21.67;;;;;;;6.29;96.38;101628.56;5087288;28;20047;-77
2022/10/16 03:36:04;;;;;;;29.80;24.80;;;;;;;5.42;96.85;101489.81;5068208;28;20024;-77
2022/10/16 03:38:29;;;;;;;37.92;24.08;;;;;;;5.97;97.16;101600.41;5067034;28;20640;-76
2022/10/16 03:40:55;;;;;;;32.63;20.80;;;;;;;5.95;97.11;101604.66;5066803;28;20483;-77
2022/10/16 03:43:20;;;;;;;35.22;22.42;;;;;;;5.40;97.27;101515.75;5067415;28;20480;-77
2022/10/16 03:45:46;;;;;;;27.58;20.67;;;;;;;6.07;97.64;101631.22;5056695;28;20041;-76
2022/10/16 03:48:11;;;;;;;26.73;20.30;;;;;;;5.58;98.96;101571.97;5043981;28;20045;-77
2022/10/16 03:50:37;;;;;;;35.25;17.15;;;;;;;5.73;99.08;101601.22;5047745;28;20047;-77
2022/10/16 03:53:03;;;;;;;35.58;18.73;;;;;;;6.05;98.65;101636.34;5067164;28;20053;-77
2022/10/16 03:55:28;;;;;;;32.22;18.25;;;;;;;5.22;97.66;101471.72;5066871;28;20037;-77
2022/10/16 03:57:53;;;;;;;27.60;19.23;;;;;;;5.02;97.57;101450.13;5067558;28;20504;-79
2022/10/16 04:00:19;;;;;;;25.58;17.58;;;;;;;5.93;97.88;101638.47;5067309;28;20032;-77
2022/10/16 04:02:44;;;;;;;26.02;15.50;;;;;;;6.08;98.13;101633.84;5066481;28;20036;-76
2022/10/16 04:05:10;;;;;;;33.80;16.05;;;;;;;6.21;96.71;101610.88;5066727;28;20060;-76
2022/10/16 04:07:36;;;;;;;32.45;15.70;;;;;;;4.99;95.28;101384.09;5066842;28;20484;-76
2022/10/16 04:10:01;;;;;;;27.02;13.65;;;;;;;6.42;95.29;101631.63;5066868;28;20395;-77
2022/10/16 04:12:27;;;;;;;23.85;15.32;;;;;;;6.31;96.20;101633.84;5049002;28;20476;-77
2022/10/16 04:14:52;;;;;;;18.80;13.90;;;;;;;5.07;97.26;101505.81;5065095;28;20811;-77
2022/10/16 04:17:18;;;;;;;23.73;14.00;;;;;;;4.93;98.63;101493.97;5058937;28;20074;-77
2022/10/16 04:19:43;;;;;;;27.42;15.57;;;;;;;6.10;98.55;101653.03;5068995;28;20046;-77
2022/10/16 04:22:09;;;;;;;24.15;14.45;;;;;;;6.28;97.98;101659.78;5086799;28;20051;-77
2022/10/16 04:24:35;;;;;;;27.40;17.17;;;;;;;6.02;97.70;101610.19;5086861;28;20042;-78
2022/10/16 04:27:00;;;;;;;23.88;15.70;;;;;;;6.25;97.77;101642.31;5083456;28;20028;-75
2022/10/16 04:29:26;;;;;;;25.17;14.18;;;;;;;5.30;96.99;101479.81;5068164;28;20907;-77
2022/10/16 04:31:51;;;;;;;21.08;13.55;;;;;;;6.10;97.33;101655.66;5086756;28;20029;-77
2022/10/16 04:34:16;;;;;;;16.02;10.27;;;;;;;5.98;97.05;101649.97;5075698;28;20095;-76
2022/10/16 04:36:42;;;;;;;20.92;12.40;;;;;;;4.62;97.30;101427.72;5075787;28;20353;-76
2022/10/16 04:39:07;;;;;;;20.75;14.18;;;;;;;5.65;98.35;101619.13;5070207;28;20032;-76
2022/10/16 04:41:33;;;;;;;23.90;12.00;;;;;;;6.22;97.25;101657.81;5069085;28;20057;-77
2022/10/16 04:43:58;;;;;;;17.40;11.68;;;;;;;5.81;96.64;101646.69;5069959;28;20049;-76
2022/10/16 04:46:24;;;;;;;19.65;12.23;;;;;;;4.80;98.63;101512.47;5053686;28;20449;-77
2022/10/16 04:48:49;;;;;;;16.33;12.65;;;;;;;5.54;98.70;101637.78;5048207;28;20048;-78
2022/10/16 04:51:14;;;;;;;22.85;12.75;;;;;;;5.68;98.74;101676.53;5050322;28;20172;-77
2022/10/16 04:53:40;;;;;;;23.92;13.95;;;;;;;5.49;99.17;101651.47;5049665;28;20044;-77
2022/10/16 04:56:05;;;;;;;39.35;13.88;;;;;;;6.00;98.42;101681.31;5031949;28;20052;-76
2022/10/16 04:58:31;;;;;;;17.65;11.73;;;;;;;6.19;97.63;101675.09;5049749;28;20060;-77
2022/10/16 05:00:57;;;;;;;15.32;11.55;;;;;;;5.43;97.58;101552.34;5049754;28;20037;-77
2022/10/16 05:03:22;;;;;;;19.77;12.10;;;;;;;5.52;96.58;101537.91;5031676;28;20025;-78
2022/10/16 05:05:48;;;;;;;18.92;11.75;;;;;;;5.55;96.14;101559.75;5050597;28;20743;-77
2022/10/16 05:08:15;;;;;;;20.52;11.48;;;;;;;5.43;95.83;101539.31;5031476;28;20029;-77
2022/10/16 05:10:44;;;;;;;22.42;11.32;;;;;;;6.41;95.69;101687.19;5049914;28;20041;-78
2022/10/16 05:13:10;;;;;;;14.18;11.43;;;;;;;6.21;95.52;101702.09;5049564;28;20048;-77
2022/10/16 05:15:35;;;;;;;17.42;10.98;;;;;;;6.00;96.79;101710.84;5045295;28;20033;-77
2022/10/16 05:18:01;;;;;;;19.08;10.73;;;;;;;5.36;96.65;101585.84;5037697;28;20036;-77
2022/10/16 05:20:27;;;;;;;13.50;10.70;;;;;;;5.75;97.30;101672.47;5045129;28;20392;-78
2022/10/16 05:22:53;;;;;;;19.70;12.30;;;;;;;5.86;97.33;101706.78;5049351;28;20485;-78
2022/10/16 05:25:18;;;;;;;19.33;11.25;;;;;;;5.87;97.38;101711.13;5049459;28;20037;-76
2022/10/16 05:27:47;;;;;;;17.65;11.50;;;;;;;6.01;97.09;101712.59;5027940;28;20037;-75
2022/10/16 05:30:12;;;;;;;20.17;11.73;;;;;;;6.41;95.90;101716.75;5029758;28;20044;-75
2022/10/16 05:32:38;;;;;;;15.00;10.65;;;;;;;6.04;94.75;101641.50;5022228;28;20045;-76
2022/10/16 05:35:04;;;;;;;27.48;12.38;;;;;;;5.28;95.03;101570.81;5030746;28;20114;-76
2022/10/16 05:37:29;;;;;;;22.63;12.32;;;;;;;6.24;94.70;101700.47;5048074;28;20051;-79
2022/10/16 05:39:55;;;;;;;33.53;13.25;;;;;;;6.36;94.61;101733.94;5048749;28;20540;-79
2022/10/16 05:42:27;;;;;;;23.75;13.00;;;;;;;5.47;94.84;101580.25;5057653;28;20106;-78
2022/10/16 05:44:59;;;;;;;17.13;12.85;;;;;;;5.58;94.69;101590.22;5049861;28;20080;-79
2022/10/16 05:47:25;;;;;;;19.95;12.20;;;;;;;6.48;94.41;101744.84;5050196;28;20446;-78
2022/10/16 05:49:50;;;;;;;28.33;11.50;;;;;;;5.98;93.40;101612.63;5068746;28;20040;-78
2022/10/16 05:52:16;;;;;;;18.98;12.00;;;;;;;6.52;93.83;101749.34;5066531;28;20590;-77
2022/10/16 05:54:41;;;;;;;23.10;12.52;;;;;;;6.73;93.33;101767.53;5074462;28;20139;-78
2022/10/16 05:57:06;;;;;;;19.17;11.35;;;;;;;5.71;93.19;101592.44;5089330;28;20024;-78
2022/10/16 05:59:32;;;;;;;21.58;12.63;;;;;;;6.36;93.53;101707.00;5089035;28;20048;-79
2022/10/16 06:01:57;;;;;;;18.65;11.55;;;;;;;5.95;92.58;101596.84;5083252;28;20112;-78
2022/10/16 06:04:23;;;;;;;16.02;11.20;;;;;;;6.22;91.51;101620.47;5089136;28;20455;-76
2022/10/16 06:06:49;;;;;;;20.33;12.57;;;;;;;6.78;91.43;101774.63;5089041;28;20044;-76
2022/10/16 06:09:14;;;;;;;14.95;10.50;;;;;;;5.93;91.76;101613.28;5071165;28;20464;-77
2022/10/16 06:11:40;;;;;;;17.27;11.52;;;;;;;6.20;91.74;101633.41;5082199;28;20044;-77
2022/10/16 06:14:08;;;;;;;17.50;11.30;;;;;;;6.55;90.28;101644.25;5076474;28;20388;-73
2022/10/16 06:16:37;;;;;;;29.95;11.43;;;;;;;6.38;90.15;101642.78;5064987;28;20132;-75
2022/10/16 06:19:06;;;;;;;18.25;11.70;;;;;;;7.30;90.85;101792.19;5087170;28;20036;-76
2022/10/16 06:21:31;;;;;;;19.35;11.95;;;;;;;6.96;89.63;101749.22;5068872;28;20032;-76
2022/10/16 06:23:58;;;;;;;16.95;10.98;;;;;;;7.35;89.42;101790.63;5068902;28;20090;-75
2022/10/16 06:26:27;;;;;;;25.98;12.05;;;;;;;7.11;88.94;101768.03;5068231;28;20585;-74
2022/10/16 06:28:55;;;;;;;31.00;12.77;;;;;;;6.66;88.85;101675.97;5068211;28;20040;-75
2022/10/16 06:31:20;;;;;;;13.63;9.43;;;;;;;7.46;88.51;101804.94;5073616;28;20102;-75
2022/10/16 06:33:51;;;;;;;31.27;11.20;;;;;;;7.73;87.14;101798.94;5088431;28;20133;-74
2022/10/16 06:36:17;;;;;;;16.00;11.35;;;;;;;7.71;87.08;101805.81;5051753;28;20128;-75
2022/10/16 06:38:43;;;;;;;27.58;10.15;;;;;;;7.76;87.16;101792.06;5049456;28;20453;-75
2022/10/16 06:41:15;;;;;;;18.05;10.70;;;;;;;7.65;86.89;101796.03;5067697;28;20049;-73
2022/10/16 06:43:41;;;;;;;23.75;10.93;;;;;;;7.67;87.03;101776.06;5048926;28;20056;-75
2022/10/16 06:46:09;;;;;;;24.00;12.05;;;;;;;7.42;86.31;101682.06;5063091;28;20099;-76
2022/10/16 06:48:34;;;;;;;16.65;11.80;;;;;;;7.21;86.33;101677.91;5049474;28;20512;-75
2022/10/16 06:51:17;;;;;;;18.38;10.90;;;;;;;8.10;85.81;101780.13;5067418;28;20032;-75
2022/10/16 06:53:50;;;;;;;19.92;13.40;;;;;;;7.55;84.60;101660.75;5065823;28;20135;-75
2022/10/16 06:56:19;;;;;;;26.65;11.27;;;;;;;8.45;85.00;101822.19;5066353;28;20033;-74
2022/10/16 06:58:45;;;;;;;25.70;12.95;;;;;;;8.60;83.87;101800.88;5066455;28;20482;-74
2022/10/16 07:01:12;;;;;;;21.75;12.75;;;;;;;8.50;84.02;101784.03;5046003;28;20403;-75
2022/10/16 07:03:40;;;;;;;33.83;13.38;;;;;;;7.95;82.96;101660.25;5065990;28;20028;-75
2022/10/16 07:06:07;;;;;;;20.58;10.88;;;;;;;8.33;81.87;101704.97;5066889;28;20139;-75
2022/10/16 07:08:34;;;;;;;14.45;10.07;;;;;;;8.81;82.00;101796.28;5073335;28;20048;-76
2022/10/16 07:11:21;;;;;;;22.30;12.90;;;;;;;8.86;82.04;101817.34;5086355;28;20075;-75
2022/10/16 07:13:47;;;;;;;22.80;14.32;;;;;;;9.01;81.20;101782.88;5066929;28;20332;-76
2022/10/16 07:16:15;;;;;;;17.13;12.77;;;;;;;8.45;80.49;101681.88;5066209;28;20051;-75
2022/10/16 07:18:44;;;;;;;23.13;12.55;;;;;;;9.24;80.68;101833.28;5064436;28;20044;-74
2022/10/16 07:21:19;;;;;;;17.02;13.93;;;;;;;9.09;81.54;101815.41;5067578;28;20118;-75
2022/10/16 07:23:45;;;;;;;22.20;13.82;;;;;;;8.38;80.95;101695.56;5065709;28;20507;-75
2022/10/16 07:26:11;;;;;;;17.08;12.63;;;;;;;8.70;79.49;101702.59;5066883;28;20045;-76
2022/10/16 07:28:37;;;;;;;25.70;12.00;;;;;;;8.90;78.88;101722.38;5041421;28;20115;-75
2022/10/16 07:31:06;;;;;;;15.82;12.35;;;;;;;9.67;78.80;101830.13;5071932;28;20044;-75
2022/10/16 07:33:32;;;;;;;26.77;11.95;;;;;;;9.33;76.30;101773.28;5077045;28;20017;-77
2022/10/16 07:35:58;;;;;;;20.50;12.10;;;;;;;9.83;75.45;101825.25;5057384;28;20479;-78
2022/10/16 07:38:23;;;;;;;23.38;13.05;;;;;;;9.72;75.45;101828.50;5050568;28;20041;-76
2022/10/16 07:40:59;;;;;;;16.85;13.25;;;;;;;9.82;75.61;101834.88;5062534;28;20052;-78
2022/10/16 07:43:26;;;;;;;23.15;13.98;;;;;;;9.87;75.10;101793.91;5045605;28;20128;-78
2022/10/16 07:45:51;;;;;;;26.25;14.55;;;;;;;9.92;74.61;101792.28;5058150;28;20095;-77
2022/10/16 07:48:17;;;;;;;23.20;14.48;;;;;;;10.12;74.03;101803.28;5065724;28;20480;-74
2022/10/16 07:50:44;;;;;;;19.00;14.15;;;;;;;9.43;73.95;101711.56;5067435;28;20499;-75
2022/10/16 07:53:10;;;;;;;20.40;13.80;;;;;;;11.19;82.87;101796.03;5041630;28;20053;-81
2022/10/16 07:55:36;;;;;;;17.10;12.50;;;;;;;12.64;85.18;101783.56;5061077;28;20071;-75
2022/10/16 07:58:01;;;;;;;24.60;14.38;;;;;;;10.62;72.53;101721.34;5055620;28;20045;-77
2022/10/16 08:00:27;;;;;;;16.73;12.93;;;;;;;11.15;71.57;101686.50;5056049;28;20092;-74
2022/10/16 08:02:52;;;;;;;21.92;12.00;;;;;;;10.99;74.45;101659.94;5066457;28;20468;-75
2022/10/16 08:05:18;;;;;;;23.45;13.60;;;;;;;10.84;71.35;101805.81;5062383;28;20746;-75
2022/10/16 08:07:48;;;;;;;22.52;13.20;;;;;;;10.86;72.69;101815.47;5055040;28;20095;-76
2022/10/16 08:10:19;;;;;;;20.90;13.75;;;;;;;10.11;71.61;101693.09;5063140;28;20056;-77
2022/10/16 08:12:44;;;;;;;17.20;11.73;;;;;;;10.91;70.96;101794.56;5078367;28;20488;-78
2022/10/16 08:15:10;;;;;;;20.38;13.93;;;;;;;11.30;70.00;101817.25;5070845;28;20043;-76
2022/10/16 08:17:35;;;;;;;17.90;12.18;;;;;;;10.40;69.65;101682.41;5051652;28;20485;-76
2022/10/16 08:20:01;;;;;;;24.73;12.93;;;;;;;10.46;69.84;101703.50;5066571;28;20041;-80
2022/10/16 08:22:27;;;;;;;21.63;13.00;;;;;;;11.17;69.73;101822.28;5058437;28;20044;-74
2022/10/16 08:24:52;;;;;;;18.33;13.07;;;;;;;10.33;69.46;101687.50;5040263;28;20044;-77
2022/10/16 08:27:18;;;;;;;20.98;14.15;;;;;;;11.19;68.75;101823.19;5070243;28;20025;-75
2022/10/16 08:29:43;;;;;;;16.63;10.93;;;;;;;10.55;69.01;101680.97;5057142;28;20037;-76
2022/10/16 08:32:09;;;;;;;20.48;11.18;;;;;;;11.30;67.87;101789.25;5057544;28;20444;-76
2022/10/16 08:34:34;;;;;;;16.45;10.60;;;;;;;11.56;67.17;101831.78;5058233;28;20053;-76
2022/10/16 08:36:59;;;;;;;15.32;10.63;;;;;;;11.54;67.39;101841.41;5067660;28;20053;-75
2022/10/16 08:39:25;;;;;;;21.25;10.80;;;;;;;11.66;67.58;101837.22;5069485;28;20024;-74
2022/10/16 08:41:50;;;;;;;18.85;10.90;;;;;;;11.82;67.16;101828.75;5069476;28;20048;-76
2022/10/16 08:44:25;;;;;;;14.40;11.40;;;;;;;11.76;67.41;101834.78;5046764;28;20056;-77
2022/10/16 08:47:03;;;;;;;21.02;13.30;;;;;;;11.96;66.46;101839.53;5062585;28;20056;-74
2022/10/16 08:49:30;;;;;;;18.08;11.57;;;;;;;11.55;66.46;101719.63;5068051;28;20028;-76
2022/10/16 08:51:57;;;;;;;23.88;11.38;;;;;;;12.25;65.57;101837.41;5056610;28;20119;-77
2022/10/16 08:54:31;;;;;;;20.65;9.80;;;;;;;12.32;65.03;101841.03;5050851;28;21679;-77
2022/10/16 08:57:07;;;;;;;14.32;9.55;;;;;;;11.83;63.64;101756.91;5048236;28;20044;-76
2022/10/16 08:59:32;;;;;;;19.17;9.65;;;;;;;12.13;64.01;101824.06;5063896;28;20049;-75
2022/10/16 09:01:59;;;;;;;15.05;9.95;;;;;;;11.40;63.80;101672.94;5060707;28;20041;-77
2022/10/16 09:04:49;;;;;;;15.82;10.15;;;;;;;12.71;64.48;101818.78;5069147;28;20043;-77
2022/10/16 09:07:34;;;;;;;16.67;11.80;;;;;;;11.92;63.95;101729.91;5075633;28;20048;-77
2022/10/16 09:10:09;;;;;;;16.05;10.70;;;;;;;12.57;62.68;101823.84;5041515;28;20094;-75
2022/10/16 09:12:57;;;;;;;14.70;10.07;;;;;;;11.78;63.51;101671.78;5064284;28;20043;-76
2022/10/16 09:15:34;;;;;;;18.60;10.18;;;;;;;12.39;65.23;101764.81;5048425;28;20123;-76
2022/10/16 09:18:15;;;;;;;20.15;9.48;;;;;;;12.82;62.16;101825.06;5077335;28;20048;-76
2022/10/16 09:20:51;;;;;;;17.95;12.27;;;;;;;12.87;63.21;101826.91;5069999;28;20066;-76
2022/10/16 09:23:18;;;;;;;17.20;11.32;;;;;;;12.72;63.71;101828.47;5056559;28;20754;-75
2022/10/16 09:25:49;;;;;;;25.38;11.00;;;;;;;12.38;63.79;101717.41;5057608;28;20040;-74
2022/10/16 09:28:16;;;;;;;17.25;10.85;;;;;;;12.50;63.63;101738.59;5041428;28;20072;-78
2022/10/16 09:30:42;;;;;;;22.02;12.85;;;;;;;12.89;62.74;101795.31;5041713;28;20085;-80
2022/10/16 09:33:10;;;;;;;21.20;11.45;;;;;;;12.45;63.08;101713.97;5062750;28;20388;-80
2022/10/16 09:35:40;;;;;;;19.50;12.32;;;;;;;13.31;62.39;101809.91;5064128;28;20127;-79
2022/10/16 09:38:06;;;;;;;14.68;13.05;;;;;;;13.34;62.92;101820.47;5066206;28;20405;-79
2022/10/16 09:40:38;;;;;;;19.90;12.25;;;;;;;12.55;62.81;101692.19;5050123;28;20436;-79
2022/10/16 09:43:53;;;;;;;25.00;13.88;;;;;;;13.26;63.65;101815.09;5076104;28;20059;-77
2022/10/16 09:46:33;;;;;;;35.40;16.05;;;;;;;13.31;62.94;101809.91;5057516;28;20114;-77
2022/10/16 09:49:01;;;;;;;17.42;13.02;;;;;;;12.57;64.10;101684.28;5058281;28;20056;-77
2022/10/16 09:51:35;;;;;;;18.02;12.70;;;;;;;13.32;62.51;101781.78;5062294;28;20029;-77
2022/10/16 09:54:21;;;;;;;18.42;14.90;;;;;;;13.49;63.83;101796.06;5050869;28;20135;-78
2022/10/16 09:56:52;;;;;;;18.67;15.02;;;;;;;12.79;64.52;101696.84;5066218;28;20048;-76
2022/10/16 09:59:26;;;;;;;17.23;13.52;;;;;;;13.25;65.07;101791.34;5063277;28;20039;-76
2022/10/16 10:01:55;;;;;;;36.22;16.48;;;;;;;13.49;64.14;101799.56;5045513;28;20365;-78
2022/10/16 10:04:25;;;;;;;22.92;13.48;;;;;;;13.39;64.22;101768.72;5049555;28;20043;-76
2022/10/16 10:06:56;;;;;;;21.20;14.50;;;;;;;13.72;63.10;101770.78;5064261;28;20056;-81
2022/10/16 10:09:24;;;;;;;19.65;13.65;;;;;;;13.06;62.91;101634.78;5063331;28;20480;-82
2022/10/16 10:11:56;;;;;;;18.02;12.98;;;;;;;13.97;61.60;101788.56;5063711;28;20031;-80
2022/10/16 10:14:31;;;;;;;24.48;15.23;;;;;;;13.68;62.42;101790.06;5063003;28;20059;-81
2022/10/16 10:17:11;;;;;;;16.83;12.35;;;;;;;13.86;60.76;101777.91;5059281;28;20771;-82
2022/10/16 10:20:22;;;;;;;27.30;18.63;;;;;;;13.97;62.21;101778.00;5041329;28;20048;-82
2022/10/16 10:22:47;;;;;;;20.58;15.32;;;;;;;13.94;60.89;101752.47;5039103;28;20058;-81
2022/10/16 10:25:13;;;;;;;23.70;16.30;;;;;;;14.38;60.54;101770.38;5066616;28;20496;-82
2022/10/16 10:27:53;;;;;;;18.90;13.50;;;;;;;14.13;61.15;101750.84;5091687;28;20041;-79
2022/10/16 10:30:40;;;;;;;18.67;14.30;;;;;;;14.39;60.25;101773.91;5054237;28;20539;-81
2022/10/16 10:33:12;;;;;;;22.60;13.55;;;;;;;14.51;59.48;101784.53;5048865;28;20107;-81
2022/10/16 10:35:45;;;;;;;17.95;13.30;;;;;;;14.89;59.81;101776.84;5063080;28;20107;-80
2022/10/16 10:38:16;;;;;;;20.33;16.27;;;;;;;14.89;59.66;101766.28;5055045;28;20393;-74
2022/10/16 10:41:17;;;;;;;24.30;13.45;;;;;;;14.88;59.35;101776.84;5063739;28;20152;-74
2022/10/16 10:44:00;;;;;;;18.38;14.15;;;;;;;14.97;58.79;101772.47;5068432;28;21274;-82
2022/10/16 10:46:34;;;;;;;23.77;13.65;;;;;;;14.57;58.98;101745.00;5059388;28;20044;-83
2022/10/16 10:49:09;;;;;;;21.77;12.88;;;;;;;15.08;57.87;101766.34;5066377;28;20068;-82
2022/10/16 10:51:52;;;;;;;15.32;13.15;;;;;;;15.29;58.18;101769.06;5063657;28;20119;-82
2022/10/16 10:54:31;;;;;;;22.38;16.60;;;;;;;15.22;57.28;101737.28;5081885;28;20088;-81
2022/10/16 10:57:14;;;;;;;22.08;13.48;;;;;;;15.37;57.48;101726.75;5058222;28;20086;-83
2022/10/16 11:00:10;;;;;;;16.98;12.45;;;;;;;15.65;56.87;101746.16;5060628;28;20135;-83
2022/10/16 11:02:53;;;;;;;20.92;12.07;;;;;;;15.66;56.70;101733.81;5049031;28;20061;-83
2022/10/16 11:05:42;;;;;;;21.98;14.40;;;;;;;15.55;57.77;101757.63;5061366;28;20075;-83
2022/10/16 11:08:30;;;;;;;17.80;11.77;;;;;;;15.34;57.58;101746.13;5050631;28;20088;-82
2022/10/16 11:11:00;;;;;;;26.67;16.15;;;;;;;14.90;56.38;101635.88;5054542;28;20044;-83
2022/10/16 11:13:37;;;;;;;18.25;12.85;;;;;;;15.33;56.86;101746.13;5047808;28;20067;-82
2022/10/16 11:16:31;;;;;;;18.42;14.65;;;;;;;15.34;57.01;101753.19;5054355;28;20044;-81
2022/10/16 11:19:13;;;;;;;21.65;12.70;;;;;;;15.39;56.90;101732.91;5049730;28;20040;-84
2022/10/16 11:21:54;;;;;;;16.88;11.65;;;;;;;15.46;57.29;101726.75;5064674;28;20031;-84
2022/10/16 11:24:36;;;;;;;13.60;11.02;;;;;;;14.99;56.98;101693.19;5049768;28;20085;-85
2022/10/16 11:27:07;;;;;;;17.42;13.15;;;;;;;14.63;57.28;101627.91;5064472;28;20141;-83